Messwerte Atqasuk

Temperatur

Temperatur
°C
1594278000 23.00 23.00 11
1594281600 0.00 0.00 9
1594285200 1.00 1.00
1594288800 2.00 2.00 5
1594292400 3.00 3.00 3
1594296000 4.00 4.00 3
1594299600 5.00 5.00
1594303200 6.00 6.00 3
1594306800 7.00 7.00 3
1594310400 8.00 8.00
1594314000 9.00 9.00 3
1594317600 10.00 10.00
1594321200 11.00 11.00 7
1594324800 12.00 12.00 9
1594328400 13.00 13.00 11
1594332000 14.00 14.00 11
1594335600 15.00 15.00 12
1594339200 16.00 16.00 12
1594342800 17.00 17.00
1594346400 18.00 18.00 11
1594350000 19.00 19.00 10
1594353600 20.00 20.00 8
1594357200 21.00 21.00 6
1594360800 22.00 22.00 4

Aktuellste Messwerte

Wettercharakter
Wetter: Nebel
Temperatur
4 °C
Feuchtigkeit
100 %
Wind
15 km/hWindrichtung: Nordost
Luftdruck
1019 hPa
Messzeit: 9. Juli 2020, 23.00Datenquelle: METAR

Weitere Messstationen in der Nähe

Messstation Temperatur Entfernung
Barrow 1 °C 93 km
Wainwright 4 °C 96 km
Point Lay 11 °C 219 km
Nuiqsut 2 °C 242 km
Deadhorse - 243 km
Kuparuk - 293 km
Deadhorse 1 °C 337 km

Wind

Windrichtung Böen Mittelwind
° km/h km/h
1594278000 23.00 22.00 - 23.00 50° 25
1594281600 0.00 23.00 - 0.00 60° 20
1594285200 1.00 0.00 - 1.00
1594288800 2.00 1.00 - 2.00 50° 20
1594292400 3.00 2.00 - 3.00 50° 25
1594296000 4.00 3.00 - 4.00 40° 20
1594299600 5.00 4.00 - 5.00
1594303200 6.00 5.00 - 6.00 40° 20
1594306800 7.00 6.00 - 7.00 50° 20
1594310400 8.00 7.00 - 8.00
1594314000 9.00 8.00 - 9.00 40° 15
1594317600 10.00 9.00 - 10.00
1594321200 11.00 10.00 - 11.00 40° 15
1594324800 12.00 11.00 - 12.00 80° 15
1594328400 13.00 12.00 - 13.00 50° 20
1594332000 14.00 13.00 - 14.00 30° 20
1594335600 15.00 14.00 - 15.00 50° 20
1594339200 16.00 15.00 - 16.00 30° 20
1594342800 17.00 16.00 - 17.00
1594346400 18.00 17.00 - 18.00 30° 25
1594350000 19.00 18.00 - 19.00 50° 20
1594353600 20.00 19.00 - 20.00 60° 25
1594357200 21.00 20.00 - 21.00 60° 25
1594360800 22.00 21.00 - 22.00 40° 20

Ihre Wetterstation

Fehlt Ihre Wetterstation auf unserem Portal?

Schreiben Sie an network@meteonews.ch

Klima

Wann ist es am wärmsten? Wann regnet es am wenigsten? Unsere Klimadaten geben Auskunft.